createdAt,value
2023-01-25T00:00:07.108Z,12.45
2023-01-25T00:05:10.178Z,12.55
2023-01-25T00:10:12.933Z,12.45
2023-01-25T00:15:16.571Z,12.50
2023-01-25T00:20:18.903Z,12.93
2023-01-25T00:25:21.021Z,12.85
2023-01-25T00:30:24.595Z,12.52
2023-01-25T00:35:32.490Z,12.35
2023-01-25T00:40:34.692Z,12.80
2023-01-25T00:45:38.262Z,12.77
2023-01-25T00:50:40.439Z,12.80
2023-01-25T00:55:42.590Z,12.43
2023-01-25T01:00:46.629Z,11.80
2023-01-25T01:05:48.895Z,13.15
2023-01-25T01:10:51.119Z,13.25
2023-01-25T01:15:54.893Z,13.77
2023-01-25T01:20:57.041Z,12.60
2023-01-25T01:26:01.572Z,12.75
2023-01-25T01:31:07.345Z,12.25
2023-01-25T01:36:10.453Z,13.02
2023-01-25T01:41:13.484Z,13.60
2023-01-25T01:46:22.419Z,12.45
2023-01-25T01:51:37.671Z,12.95
2023-01-25T01:56:43.780Z,12.15
2023-01-25T02:01:49.459Z,13.65
2023-01-25T02:06:57.081Z,13.02
2023-01-25T02:12:02.417Z,14.13
2023-01-25T02:17:09.415Z,13.82
2023-01-25T02:22:16.509Z,13.90
2023-01-25T02:27:21.025Z,12.57
2023-01-25T02:32:23.628Z,13.98
2023-01-25T02:37:26.034Z,14.02
2023-01-25T02:42:35.768Z,13.82
2023-01-25T02:47:38.037Z,13.30
2023-01-25T02:52:40.185Z,13.55
2023-01-25T02:57:44.042Z,14.13
2023-01-25T03:02:46.239Z,14.32
2023-01-25T03:07:48.437Z,13.98
2023-01-25T03:12:52.002Z,14.25
2023-01-25T03:17:54.345Z,15.68
2023-01-25T03:22:56.989Z,14.90
2023-01-25T03:28:00.630Z,14.88
2023-01-25T03:33:02.976Z,14.25
2023-01-25T03:38:07.291Z,14.23
2023-01-25T03:43:11.113Z,14.68
2023-01-25T03:48:16.366Z,13.80
2023-01-25T03:53:27.570Z,13.63
2023-01-25T03:58:32.512Z,15.10
2023-01-25T04:03:35.554Z,14.90
2023-01-25T04:08:37.958Z,14.55
2023-01-25T04:13:41.468Z,15.25
2023-01-25T04:18:43.585Z,16.02
2023-01-25T04:23:45.946Z,15.43
2023-01-25T04:28:50.386Z,16.38
2023-01-25T04:33:52.801Z,16.23
2023-01-25T04:38:55.422Z,16.98
2023-01-25T04:43:59.055Z,18.95
2023-01-25T04:49:01.296Z,17.13
2023-01-25T04:54:03.716Z,17.08
2023-01-25T04:59:07.638Z,16.33
2023-01-25T05:04:09.849Z,20.40
2023-01-25T05:09:12.200Z,18.08
2023-01-25T05:14:15.722Z,17.90
2023-01-25T05:19:17.893Z,18.35
2023-01-25T05:24:20.201Z,19.85
2023-01-25T05:29:26.984Z,18.98
2023-01-25T05:34:29.150Z,17.17
2023-01-25T05:39:31.297Z,19.35
2023-01-25T05:44:34.833Z,19.40
2023-01-25T05:49:37.021Z,18.73
2023-01-25T05:54:39.164Z,18.60
2023-01-25T05:59:42.736Z,18.08
2023-01-25T06:04:44.927Z,19.30
2023-01-25T06:09:47.084Z,18.88
2023-01-25T06:14:50.611Z,19.25
2023-01-25T06:19:52.771Z,18.45
2023-01-25T06:24:57.560Z,17.15
2023-01-25T06:30:01.149Z,19.17
2023-01-25T06:35:03.760Z,16.30
2023-01-25T06:40:11.380Z,18.02
2023-01-25T06:45:15.337Z,16.73
2023-01-25T06:50:17.768Z,16.20
2023-01-25T06:55:20.557Z,16.77
2023-01-25T07:00:24.669Z,16.33
2023-01-25T07:05:26.894Z,16.13
2023-01-25T07:10:29.096Z,16.27
2023-01-25T07:15:32.762Z,16.50
2023-01-25T07:20:35.374Z,16.75
2023-01-25T07:25:38.021Z,18.27
2023-01-25T07:30:44.128Z,17.25
2023-01-25T07:35:46.455Z,17.73
2023-01-25T07:40:53.369Z,16.27
2023-01-25T07:46:02.896Z,17.17
2023-01-25T07:51:22.855Z,17.38
2023-01-25T07:56:26.798Z,16.45
2023-01-25T08:01:35.206Z,15.60
2023-01-25T08:06:39.689Z,16.75
2023-01-25T08:11:43.198Z,17.73
2023-01-25T08:16:49.519Z,16.05
2023-01-25T08:21:51.632Z,21.30
2023-01-25T08:26:56.269Z,17.00
2023-01-25T08:32:00.483Z,18.15
2023-01-25T08:37:02.721Z,16.55
2023-01-25T08:42:04.936Z,15.80
2023-01-25T08:47:08.462Z,16.55
2023-01-25T08:52:14.637Z,15.50
2023-01-25T08:57:16.781Z,16.95
2023-01-25T09:02:21.770Z,16.50
2023-01-25T09:07:25.295Z,14.60
2023-01-25T09:12:27.714Z,14.70
2023-01-25T09:17:32.227Z,14.05
2023-01-25T09:22:34.807Z,15.45
2023-01-25T09:27:39.446Z,13.90
2023-01-25T09:32:43.071Z,12.85
2023-01-25T09:37:45.308Z,12.20
2023-01-25T09:43:01.797Z,13.00
2023-01-25T09:48:20.897Z,14.48
2023-01-25T09:53:34.658Z,11.82
2023-01-25T09:58:39.247Z,12.52
2023-01-25T10:03:48.945Z,14.75
2023-01-25T10:08:56.790Z,11.10
2023-01-25T10:14:00.186Z,11.88
2023-01-25T10:19:16.825Z,11.35
2023-01-25T10:24:50.034Z,11.57
2023-01-25T10:29:57.473Z,12.20
2023-01-25T10:35:29.170Z,12.63
2023-01-25T10:40:43.455Z,11.52
2023-01-25T10:45:45.837Z,10.85
2023-01-25T10:50:53.799Z,9.77
2023-01-25T10:56:02.076Z,9.95
2023-01-25T11:01:08.109Z,13.52
2023-01-25T11:06:13.889Z,12.55
2023-01-25T11:11:28.155Z,12.43
2023-01-25T11:16:37.389Z,12.75
2023-01-25T11:21:54.919Z,13.63
2023-01-25T11:27:19.270Z,13.15
2023-01-25T11:32:28.345Z,12.80
2023-01-25T11:37:41.892Z,12.07
2023-01-25T11:43:01.180Z,13.80
2023-01-25T11:48:26.250Z,16.55
2023-01-25T11:53:47.558Z,15.50
2023-01-25T11:59:10.018Z,15.77
2023-01-25T12:04:56.712Z,14.13
2023-01-25T12:10:11.025Z,17.00
2023-01-25T12:15:29.076Z,14.43
2023-01-25T12:20:43.929Z,15.02
2023-01-25T12:26:03.827Z,14.13
2023-01-25T12:31:13.504Z,14.52
2023-01-25T12:36:24.200Z,16.15
2023-01-25T12:41:34.622Z,16.52
2023-01-25T12:46:43.752Z,14.60
2023-01-25T12:51:47.297Z,14.48
2023-01-25T12:56:59.107Z,14.85
2023-01-25T13:02:14.771Z,15.43
2023-01-25T13:07:25.552Z,15.70
2023-01-25T13:12:29.456Z,17.55
2023-01-25T13:17:35.682Z,16.77
2023-01-25T13:23:02.168Z,16.63
2023-01-25T13:28:41.517Z,15.90
2023-01-25T13:33:43.691Z,17.08
2023-01-25T13:38:45.875Z,15.32
2023-01-25T13:44:09.839Z,16.10
2023-01-25T13:49:23.900Z,15.40
2023-01-25T13:54:26.385Z,16.58
2023-01-25T13:59:31.610Z,17.02
2023-01-25T14:04:37.359Z,15.98
2023-01-25T14:09:44.573Z,15.65
2023-01-25T14:14:49.668Z,16.00
2023-01-25T14:19:55.147Z,18.25
2023-01-25T14:25:12.952Z,18.30
2023-01-25T14:30:22.807Z,19.33
2023-01-25T14:35:54.168Z,15.98
2023-01-25T14:41:00.407Z,16.27
2023-01-25T14:46:20.485Z,17.25
2023-01-25T14:51:28.625Z,17.23
2023-01-25T14:56:36.184Z,17.02
2023-01-25T15:01:42.353Z,17.52
2023-01-25T15:06:49.299Z,17.60
2023-01-25T15:11:51.321Z,18.40
2023-01-25T15:16:56.022Z,18.67
2023-01-25T15:22:00.577Z,17.88
2023-01-25T15:27:03.446Z,18.27
2023-01-25T15:32:18.051Z,18.95
2023-01-25T15:37:20.255Z,19.40
2023-01-25T15:42:22.478Z,18.02
2023-01-25T15:47:28.614Z,15.43
2023-01-25T15:52:30.939Z,18.63
2023-01-25T15:57:39.287Z,18.67
2023-01-25T16:02:43.448Z,20.20
2023-01-25T16:07:46.975Z,19.55
2023-01-25T16:12:50.026Z,18.50
2023-01-25T16:17:53.895Z,18.95
2023-01-25T16:22:56.666Z,18.05
2023-01-25T16:27:59.673Z,19.27
2023-01-25T16:33:05.081Z,18.42
2023-01-25T16:38:08.008Z,16.23
2023-01-25T16:43:12.069Z,18.75
2023-01-25T16:48:17.067Z,19.90
2023-01-25T16:53:20.559Z,21.02
2023-01-25T16:58:23.412Z,19.08
2023-01-25T17:03:27.709Z,19.92
2023-01-25T17:08:31.214Z,19.73
2023-01-25T17:13:34.208Z,18.85
2023-01-25T17:18:38.958Z,21.00
2023-01-25T17:23:43.868Z,22.08
2023-01-25T17:28:47.469Z,21.35
2023-01-25T17:33:52.156Z,20.95
2023-01-25T17:38:55.323Z,20.42
2023-01-25T17:44:00.146Z,19.20
2023-01-25T17:49:06.909Z,19.92
2023-01-25T17:54:12.112Z,19.17
2023-01-25T17:59:15.762Z,19.33
2023-01-25T18:04:21.139Z,19.52
2023-01-25T18:09:25.844Z,20.25
2023-01-25T18:14:30.433Z,17.55
2023-01-25T18:19:36.390Z,18.83
2023-01-25T18:24:41.257Z,19.65
2023-01-25T18:29:53.215Z,20.33
2023-01-25T18:34:58.237Z,23.88
2023-01-25T18:40:01.684Z,22.13
2023-01-25T18:45:06.234Z,20.20
2023-01-25T18:50:14.529Z,22.95
2023-01-25T18:55:19.310Z,22.00
2023-01-25T19:00:23.669Z,24.65
2023-01-25T19:05:30.220Z,24.27
2023-01-25T19:10:36.802Z,23.80
2023-01-25T19:15:41.628Z,24.83
2023-01-25T19:20:47.018Z,25.60
2023-01-25T19:25:56.377Z,25.90
2023-01-25T19:31:10.437Z,24.75
2023-01-25T19:36:18.967Z,23.25
2023-01-25T19:41:25.858Z,25.27
2023-01-25T19:46:32.548Z,26.45
2023-01-25T19:51:42.450Z,25.55
2023-01-25T19:56:48.004Z,26.00
2023-01-25T20:01:51.836Z,26.65
2023-01-25T20:06:58.355Z,27.63
2023-01-25T20:12:06.459Z,26.05
2023-01-25T20:17:11.218Z,25.90
2023-01-25T20:22:22.028Z,25.67
2023-01-25T20:27:27.588Z,27.67
2023-01-25T20:32:33.616Z,27.92
2023-01-25T20:37:40.254Z,28.77
2023-01-25T20:42:44.447Z,31.25
2023-01-25T20:47:48.029Z,30.55
2023-01-25T20:52:53.974Z,30.02
2023-01-25T20:57:57.795Z,30.20
2023-01-25T21:03:01.324Z,29.67
2023-01-25T21:08:07.280Z,28.77
2023-01-25T21:13:11.491Z,29.17
2023-01-25T21:18:17.099Z,30.67
2023-01-25T21:23:23.395Z,29.98
2023-01-25T21:28:26.913Z,28.27
2023-01-25T21:33:30.336Z,29.67
2023-01-25T21:38:35.889Z,29.85
2023-01-25T21:43:52.830Z,31.20
2023-01-25T21:49:18.200Z,29.35
2023-01-25T21:54:24.023Z,31.30
2023-01-25T21:59:27.633Z,30.23
2023-01-25T22:04:30.306Z,30.52
2023-01-25T22:09:34.070Z,31.35
2023-01-25T22:14:36.747Z,30.83
2023-01-25T22:19:38.937Z,32.05
2023-01-25T22:24:42.554Z,32.92
2023-01-25T22:29:44.754Z,29.65
2023-01-25T22:34:46.914Z,25.77
2023-01-25T22:39:50.509Z,28.92
2023-01-25T22:44:53.312Z,26.67
2023-01-25T22:49:55.620Z,25.35
2023-01-25T22:54:59.222Z,28.60
2023-01-25T23:00:01.418Z,23.77
2023-01-25T23:05:03.633Z,23.95
2023-01-25T23:10:08.507Z,21.25
2023-01-25T23:15:15.502Z,22.17
2023-01-25T23:20:18.045Z,20.08
2023-01-25T23:25:24.492Z,20.98
2023-01-25T23:30:26.843Z,18.83
2023-01-25T23:35:29.294Z,18.25
2023-01-25T23:40:32.826Z,19.25
2023-01-25T23:45:35.027Z,18.00
2023-01-25T23:50:38.393Z,16.23
2023-01-25T23:55:41.963Z,17.48
